Boca Raton, FL (33433)

1:13 PM EST on December 06, 2016 (GMT -0500)
| | Change Station

Elev -9999 ft 0.00 °N, 0.00 °E | Updated

Cloudy
Cloudy
84 °F
Feels Like 88 °F
N
13
Wind Variable Wind from SW
Gusts 18 mph

Today
High -- | Low -- °F
--% Chance of Precip.
Yesterday
High -- | Low -- °F
Precip. -- in
Pressure 29.94 in
Visibility 10.0 miles
Clouds Scattered Clouds 3200 ft
Heat Index 88 °F
Dew Point 70 °F
Humidity 62%
Rainfall --
Snow Depth Not available.
6:55 AM 5:28 PM
Waxing Crescent, 44% visible
METAR KPMP 061753Z 23013KT 10SM SCT032 31/21 A2993 RMK AO2 SLP137 T03110206 10311 20256 58021
Pressure 29.94 in
Visibility 10.0 miles
Clouds Scattered Clouds 3200 ft
Heat Index 88 °F
Dew Point 70 °F
Humidity 62%
Rainfall --
Snow Depth Not available.
6:55 AM 5:28 PM
Waxing Crescent, 44% visible
METAR KPMP 061753Z 23013KT 10SM SCT032 31/21 A2993 RMK AO2 SLP137 T03110206 10311 20256 58021

10-Day Weather Forecast

Almanac

Astronomy

Dec. 06, 2016 Rise Set
Actual Time
Civil Twilight
Nautical Twilight
Astronomical Twilight
Moon
Length of Visible Light
Length of Day
Tomorrow will be .
, % of the Moon is Illuminated

Today's Extremes

State Highs State Lows

Community

WunderPhotos

Upload Photos

1,955,997 photos uploaded!

WunderBlog® & News

Nearby

Air Quality

  Air Quality AQ Index Pollutant
Not available.

Snow Depth

Station Depth Elevation

Earthquake Activity

City Distance Mag. Time & Date
Minimum magnitude displayed is 2.5.

Coastal Water Temperatures

Place Temperature

Stations

Nearby Weather Stations

Station Location Temp. Windchill Dew Point Humidity Wind Precip. Elev Updated Type
                   

Watches & Warnings

There are currently no watches in effect.